Aviation Digital Data Service (ADDS)

Output produced by METARs form (1755 UTC 12 December 2017)
found at http://aviationweather.gov/adds/metars/
 
KERI 121743Z 1218/1318 29015G25KT 4SM -SHSN BKN035 
     TEMPO 1218/1222 30015KT 2SM -SN BKN025 
     FM130100 29018G28KT 3SM -SHSN OVC025 
     TEMPO 1302/1306 30015KT 3/4SM -SN OVC015 
     FM130600 29015G25KT 2SM -SHSN OVC020 
     FM131500 26015G25KT 5SM -SHSN OVC030